Terminal Aerodrome Forecast
Issued by NWS Twin Cities, MN

Home | Current Version | Previous Version | Text Only | Print | Product List | Glossary Off
Versions: 1 2 3 4 5 6 7 8 9 10 11 12 13 14 15 16 17 18 19 20 21 22 23 24 25 26 27

000
FTUS43 KMPX 082342
TAFMSP
TAF
KMSP 082342Z 0900/1006 32012KT P6SM -SN OVC030
     FM090300 30013KT P6SM OVC028
      TEMPO 0909/0913 BKN012
     FM091400 29006KT P6SM BKN020
     FM091800 28006KT P6SM SCT035=

USA.gov is the U.S. government's official web portal to all federal, state and local government web resources and services.